Time;durP1;ratioP1;P1;durP2;ratioP2;P2;SDS_P1;SDS_P2;PMS_P1;PMS_P2;Temp;Humidity;BMP_temperature;BMP_pressure;BME280_temperature;BME280_humidity;BME280_pressure;Samples;Min_cycle;Max_cycle;Signal;HPM_P1;HPM_P2
2023/03/07 00:02:19;;;;;;;11.60;8.30;;;7.00;99.90;;;;;;5052338;28;20469;-71
2023/03/07 00:04:46;;;;;;;12.30;8.60;;;7.00;99.90;;;;;;5052360;28;20429;-71
2023/03/07 00:07:15;;;;;;;11.27;8.10;;;7.00;99.90;;;;;;5041305;28;20461;-71
2023/03/07 00:09:41;;;;;;;11.87;8.10;;;6.90;99.90;;;;;;5067815;28;20437;-71
2023/03/07 00:12:12;;;;;;;11.23;7.93;;;7.00;99.90;;;;;;5051559;28;20500;-71
2023/03/07 00:14:41;;;;;;;12.70;8.90;;;6.90;99.90;;;;;;5050317;28;20549;-71
2023/03/07 00:17:10;;;;;;;11.57;8.25;;;7.00;99.90;;;;;;5052099;28;20903;-71
2023/03/07 00:19:42;;;;;;;10.77;8.00;;;6.90;99.90;;;;;;5051276;28;20289;-70
2023/03/07 00:22:09;;;;;;;11.40;8.33;;;7.00;99.90;;;;;;5050934;28;20917;-71
2023/03/07 00:24:37;;;;;;;12.67;8.40;;;7.00;99.90;;;;;;5052170;28;20444;-71
2023/03/07 00:27:06;;;;;;;12.47;8.30;;;6.90;99.90;;;;;;5050825;28;20434;-71
2023/03/07 00:29:39;;;;;;;11.70;8.43;;;7.00;99.90;;;;;;5052674;28;20532;-71
2023/03/07 00:32:05;;;;;;;10.77;7.60;;;6.90;99.90;;;;;;5051541;28;20508;-70
2023/03/07 00:34:33;;;;;;;11.77;8.40;;;7.00;99.90;;;;;;5034749;28;20417;-71
2023/03/07 00:37:04;;;;;;;11.02;7.35;;;6.90;99.90;;;;;;5051655;28;20457;-71
2023/03/07 00:39:30;;;;;;;8.87;7.20;;;6.90;99.90;;;;;;5050663;28;20201;-71
2023/03/07 00:41:55;;;;;;;10.57;7.10;;;6.90;99.90;;;;;;5067228;28;20409;-71
2023/03/07 00:44:25;;;;;;;11.32;6.88;;;6.90;99.90;;;;;;5051355;28;20420;-71
2023/03/07 00:46:57;;;;;;;9.60;7.20;;;6.90;99.90;;;;;;5033981;28;20187;-71
2023/03/07 00:49:27;;;;;;;10.37;7.40;;;6.90;99.90;;;;;;5051907;28;20192;-71
2023/03/07 00:51:53;;;;;;;8.10;6.63;;;6.90;99.90;;;;;;5050759;28;20426;-69
2023/03/07 00:54:19;;;;;;;8.73;6.83;;;6.90;99.90;;;;;;5052879;28;20932;-69
2023/03/07 00:56:48;;;;;;;9.93;6.77;;;6.90;99.90;;;;;;5052753;28;20393;-69
2023/03/07 00:59:16;;;;;;;7.37;6.00;;;6.90;99.90;;;;;;5051398;28;20537;-69
2023/03/07 01:01:42;;;;;;;8.70;7.07;;;6.90;99.90;;;;;;5068331;28;20480;-69
2023/03/07 01:04:11;;;;;;;8.60;6.60;;;6.90;99.90;;;;;;5051421;28;20811;-69
2023/03/07 01:06:41;;;;;;;8.83;6.47;;;6.90;99.90;;;;;;5047676;28;20434;-69
2023/03/07 01:09:12;;;;;;;7.50;5.60;;;6.90;99.90;;;;;;5051338;28;20453;-69
2023/03/07 01:11:40;;;;;;;8.53;6.13;;;6.90;99.90;;;;;;5051460;28;20496;-69
2023/03/07 01:14:08;;;;;;;8.13;6.20;;;6.90;99.90;;;;;;5051571;28;20396;-69
2023/03/07 01:16:37;;;;;;;7.90;6.30;;;6.90;99.90;;;;;;5051546;28;20504;-69
2023/03/07 01:19:06;;;;;;;8.00;6.00;;;6.90;99.90;;;;;;5067818;28;20437;-69
2023/03/07 01:21:38;;;;;;;13.73;6.93;;;6.90;99.90;;;;;;5051330;28;20401;-69
2023/03/07 01:24:05;;;;;;;8.60;6.23;;;6.90;99.90;;;;;;5051283;28;20432;-69
2023/03/07 01:26:32;;;;;;;8.47;6.50;;;6.90;99.90;;;;;;5050709;28;20488;-69
2023/03/07 01:29:02;;;;;;;8.73;6.80;;;6.90;99.90;;;;;;5051765;28;20498;-69
2023/03/07 01:31:31;;;;;;;7.70;5.83;;;6.90;99.90;;;;;;5051117;28;20503;-69
2023/03/07 01:34:04;;;;;;;9.43;6.20;;;6.90;99.90;;;;;;5050816;28;20587;-69
2023/03/07 01:36:35;;;;;;;7.80;5.70;;;6.90;99.90;;;;;;5034534;28;20467;-69
2023/03/07 01:39:09;;;;;;;7.97;5.77;;;6.90;99.90;;;;;;5067680;28;20437;-69
2023/03/07 01:41:38;;;;;;;8.20;6.10;;;6.90;99.90;;;;;;5034275;28;20425;-69
2023/03/07 01:44:21;;;;;;;5.70;4.90;;;6.90;99.90;;;;;;5050910;28;20828;-69
2023/03/07 01:46:54;;;;;;;6.47;5.10;;;6.90;99.90;;;;;;5052196;28;20520;-69
2023/03/07 01:49:33;;;;;;;6.80;5.27;;;6.90;99.90;;;;;;5050721;28;20455;-69
2023/03/07 01:52:08;;;;;;;5.90;4.70;;;6.90;99.90;;;;;;5047402;28;20900;-69
2023/03/07 01:54:47;;;;;;;8.20;4.70;;;6.90;99.90;;;;;;5051275;28;20938;-69
2023/03/07 01:57:23;;;;;;;5.13;4.27;;;6.90;99.90;;;;;;5038339;28;20527;-69
2023/03/07 01:59:53;;;;;;;5.50;4.13;;;6.90;99.90;;;;;;5071488;28;20944;-69
2023/03/07 02:02:21;;;;;;;5.60;4.40;;;6.90;99.90;;;;;;5054394;28;20453;-69
2023/03/07 02:05:02;;;;;;;6.13;4.50;;;6.90;99.90;;;;;;5037802;28;20439;-69
2023/03/07 02:07:35;;;;;;;6.53;4.23;;;6.90;99.90;;;;;;5054893;28;20409;-69
2023/03/07 02:10:03;;;;;;;4.57;4.10;;;6.90;99.90;;;;;;5071540;28;20402;-69
2023/03/07 02:12:29;;;;;;;4.90;4.10;;;6.90;99.90;;;;;;5036289;28;20468;-69
2023/03/07 02:14:55;;;;;;;4.40;3.93;;;6.90;99.90;;;;;;5034662;28;20497;-69
2023/03/07 02:17:26;;;;;;;5.33;3.53;;;6.90;99.90;;;;;;5034613;28;20497;-69
2023/03/07 02:20:20;;;;;;;4.80;4.00;;;6.90;99.90;;;;;;5040394;28;20415;-69
2023/03/07 02:22:48;;;;;;;4.13;3.73;;;6.90;99.90;;;;;;5054647;28;20758;-69
2023/03/07 02:25:32;;;;;;;4.57;3.53;;;6.90;99.90;;;;;;5021324;28;20426;-69
2023/03/07 02:28:03;;;;;;;4.73;3.77;;;6.90;99.90;;;;;;5053944;28;20499;-69
2023/03/07 02:30:32;;;;;;;4.80;3.40;;;6.90;99.90;;;;;;5054078;28;20403;-69
2023/03/07 02:32:58;;;;;;;4.90;3.57;;;6.90;99.90;;;;;;5061767;28;20498;-69
2023/03/07 02:35:29;;;;;;;3.60;3.00;;;6.90;99.90;;;;;;5070028;28;20866;-69
2023/03/07 02:38:02;;;;;;;3.10;2.80;;;6.90;99.90;;;;;;5037574;28;20450;-69
2023/03/07 02:40:33;;;;;;;4.97;3.33;;;6.90;99.90;;;;;;5054014;28;20214;-69
2023/03/07 02:43:08;;;;;;;4.40;3.37;;;6.90;99.90;;;;;;5036894;28;20810;-69
2023/03/07 02:45:36;;;;;;;3.50;3.03;;;6.90;99.90;;;;;;5054104;28;20941;-69
2023/03/07 02:48:03;;;;;;;4.47;3.30;;;6.90;99.90;;;;;;5054052;28;20457;-69
2023/03/07 02:50:33;;;;;;;4.13;3.40;;;6.90;99.90;;;;;;5037209;28;20481;-69
2023/03/07 02:53:02;;;;;;;3.57;2.90;;;6.90;99.90;;;;;;5037080;28;21029;-69
2023/03/07 02:55:29;;;;;;;4.00;3.20;;;6.90;99.90;;;;;;5053725;28;20778;-69
2023/03/07 02:58:01;;;;;;;3.20;2.90;;;6.90;99.90;;;;;;5069852;28;20437;-69
2023/03/07 03:00:30;;;;;;;3.23;2.60;;;6.90;99.90;;;;;;5070051;28;21035;-69
2023/03/07 03:02:57;;;;;;;3.42;3.13;;;6.90;99.90;;;;;;5053408;28;20948;-69
2023/03/07 03:05:25;;;;;;;4.50;3.30;;;6.90;99.90;;;;;;5054905;28;20159;-70
2023/03/07 03:07:58;;;;;;;3.20;2.90;;;6.90;99.90;;;;;;5053349;28;20451;-69
2023/03/07 03:10:24;;;;;;;3.05;2.72;;;6.90;99.90;;;;;;5053558;28;20425;-69
2023/03/07 03:12:55;;;;;;;3.57;2.80;;;6.90;99.90;;;;;;5053297;28;20700;-69
2023/03/07 03:15:22;;;;;;;4.07;3.50;;;6.90;99.90;;;;;;5053538;28;20936;-69
2023/03/07 03:17:53;;;;;;;5.47;2.90;;;6.90;99.90;;;;;;5053227;28;20511;-69
2023/03/07 03:20:19;;;;;;;3.70;2.83;;;6.90;99.90;;;;;;5036201;28;20425;-69
2023/03/07 03:22:50;;;;;;;4.00;3.17;;;6.90;99.90;;;;;;5054654;28;20435;-69
2023/03/07 03:25:16;;;;;;;4.60;2.97;;;6.90;99.90;;;;;;5036251;28;20451;-69
2023/03/07 03:27:43;;;;;;;3.20;2.90;;;6.90;99.90;;;;;;5052616;28;20455;-69
2023/03/07 03:30:11;;;;;;;3.70;3.03;;;6.90;99.90;;;;;;5036210;28;20442;-69
2023/03/07 03:32:42;;;;;;;4.27;3.33;;;6.90;99.90;;;;;;5069376;28;20501;-69
2023/03/07 03:35:13;;;;;;;3.30;2.93;;;6.90;99.90;;;;;;5069165;28;20407;-70
2023/03/07 03:37:43;;;;;;;4.53;3.40;;;6.90;99.90;;;;;;5069411;28;20444;-69
2023/03/07 03:40:16;;;;;;;3.40;2.80;;;6.90;99.90;;;;;;5061853;28;20465;-69
2023/03/07 03:42:45;;;;;;;4.05;3.30;;;6.90;99.90;;;;;;5033100;28;20988;-69
2023/03/07 03:45:14;;;;;;;3.47;2.90;;;6.90;99.90;;;;;;5032937;28;20613;-69
2023/03/07 03:47:41;;;;;;;3.80;2.90;;;6.90;99.90;;;;;;5032882;28;20413;-69
2023/03/07 03:50:07;;;;;;;3.37;3.07;;;6.90;99.90;;;;;;5032624;28;20405;-69
2023/03/07 03:52:36;;;;;;;12.53;3.20;;;6.80;99.90;;;;;;5034560;28;20461;-69
2023/03/07 03:55:03;;;;;;;3.10;2.73;;;6.80;99.90;;;;;;5019775;28;20423;-69
2023/03/07 03:57:32;;;;;;;4.27;3.30;;;6.90;99.90;;;;;;5051599;28;20479;-69
2023/03/07 03:59:57;;;;;;;3.37;3.07;;;6.80;99.90;;;;;;5030670;28;20429;-69
2023/03/07 04:02:24;;;;;;;3.80;3.07;;;6.80;99.90;;;;;;5031738;28;20535;-69
2023/03/07 04:04:54;;;;;;;4.28;3.63;;;6.90;99.90;;;;;;5035677;28;20428;-69
2023/03/07 04:07:21;;;;;;;4.07;3.43;;;6.90;99.90;;;;;;5068655;28;20286;-69
2023/03/07 04:09:47;;;;;;;3.50;3.13;;;6.80;99.90;;;;;;5035382;28;20464;-69
2023/03/07 04:12:13;;;;;;;4.45;3.50;;;6.90;99.90;;;;;;5066964;28;20470;-69
2023/03/07 04:14:39;;;;;;;4.10;3.53;;;6.90;99.90;;;;;;5037635;28;20532;-69
2023/03/07 04:17:07;;;;;;;4.20;3.70;;;6.80;99.90;;;;;;5035363;28;20183;-69
2023/03/07 04:19:33;;;;;;;4.93;4.30;;;6.80;99.90;;;;;;5068120;28;20205;-69
2023/03/07 04:22:03;;;;;;;4.67;3.80;;;6.80;99.90;;;;;;5068485;28;20516;-69
2023/03/07 04:24:30;;;;;;;5.85;5.22;;;6.80;99.90;;;;;;5051956;28;20781;-69
2023/03/07 04:27:01;;;;;;;6.67;4.93;;;6.80;99.90;;;;;;5051675;28;20187;-69
2023/03/07 04:29:30;;;;;;;6.97;5.40;;;6.80;99.90;;;;;;5050848;28;20560;-69
2023/03/07 04:32:05;;;;;;;7.37;5.27;;;6.80;99.90;;;;;;5067420;28;20437;-69
2023/03/07 04:34:33;;;;;;;7.30;5.60;;;6.80;99.90;;;;;;5051595;28;20413;-69
2023/03/07 04:37:02;;;;;;;6.53;5.63;;;6.80;99.90;;;;;;5051539;28;20410;-69
2023/03/07 04:39:31;;;;;;;7.18;5.85;;;6.80;99.90;;;;;;5051703;28;20456;-69
2023/03/07 04:42:00;;;;;;;6.97;5.50;;;6.80;99.90;;;;;;5068294;28;20202;-70
2023/03/07 04:44:33;;;;;;;7.63;5.50;;;6.80;99.90;;;;;;5034980;28;20428;-69
2023/03/07 04:46:59;;;;;;;6.47;5.47;;;6.80;99.90;;;;;;5051761;28;20466;-69
2023/03/07 04:49:28;;;;;;;7.60;6.27;;;6.80;99.90;;;;;;5051132;28;20454;-69
2023/03/07 04:51:54;;;;;;;7.23;5.67;;;6.80;99.90;;;;;;5068040;28;20410;-69
2023/03/07 04:54:25;;;;;;;8.07;6.20;;;6.80;99.90;;;;;;5051647;28;20461;-69
2023/03/07 04:56:51;;;;;;;7.67;6.10;;;6.80;99.90;;;;;;5061031;28;20421;-69
2023/03/07 04:59:20;;;;;;;8.03;6.57;;;6.80;99.90;;;;;;5020537;28;20447;-69
2023/03/07 05:01:46;;;;;;;8.73;6.10;;;6.80;99.90;;;;;;5049869;28;20452;-69
2023/03/07 05:04:12;;;;;;;8.90;6.77;;;6.80;99.90;;;;;;5032534;28;20458;-69
2023/03/07 05:06:38;;;;;;;9.03;6.80;;;6.80;99.90;;;;;;5068096;28;20406;-69
2023/03/07 05:09:07;;;;;;;10.03;6.30;;;6.80;99.90;;;;;;5067523;28;20453;-74
2023/03/07 05:11:32;;;;;;;8.73;6.30;;;6.80;99.90;;;;;;5061916;28;21118;-73
2023/03/07 05:13:59;;;;;;;9.30;6.70;;;6.80;99.90;;;;;;5017311;28;20479;-71
2023/03/07 05:16:27;;;;;;;10.60;6.65;;;6.80;99.90;;;;;;5067020;28;20392;-71
2023/03/07 05:18:55;;;;;;;9.05;6.80;;;6.80;99.90;;;;;;5033469;28;20206;-71
2023/03/07 05:21:22;;;;;;;9.98;7.28;;;6.80;99.90;;;;;;5066904;28;20231;-71
2023/03/07 05:23:50;;;;;;;8.30;6.33;;;6.80;99.90;;;;;;5049806;28;20193;-71
2023/03/07 05:26:21;;;;;;;10.50;7.23;;;6.80;99.90;;;;;;5034156;28;20531;-71
2023/03/07 05:28:48;;;;;;;9.95;6.90;;;6.80;99.90;;;;;;5051230;28;20543;-71
2023/03/07 05:31:14;;;;;;;8.93;6.72;;;6.80;99.90;;;;;;5069160;28;20617;-71
2023/03/07 05:33:41;;;;;;;9.33;7.13;;;6.80;99.90;;;;;;5070863;28;20241;-71
2023/03/07 05:36:08;;;;;;;9.45;7.07;;;6.80;99.90;;;;;;5053935;28;20411;-71
2023/03/07 05:38:35;;;;;;;7.85;6.53;;;6.80;99.90;;;;;;5054369;28;20198;-71
2023/03/07 05:41:01;;;;;;;10.23;6.70;;;6.80;99.90;;;;;;5050404;28;20207;-71
2023/03/07 05:43:29;;;;;;;11.03;8.00;;;6.80;99.90;;;;;;5053310;28;20948;-71
2023/03/07 05:45:57;;;;;;;9.52;8.05;;;6.80;99.90;;;;;;5037692;28;20571;-71
2023/03/07 05:48:23;;;;;;;8.60;7.20;;;6.80;99.90;;;;;;5053797;28;20664;-71
2023/03/07 05:50:50;;;;;;;8.80;7.00;;;6.80;99.90;;;;;;5054009;28;20433;-71
2023/03/07 05:53:18;;;;;;;8.13;6.47;;;6.80;99.90;;;;;;5052744;28;20858;-71
2023/03/07 05:55:47;;;;;;;9.18;6.93;;;6.80;99.90;;;;;;5037635;28;20183;-71
2023/03/07 05:58:16;;;;;;;9.05;7.03;;;6.80;99.90;;;;;;5053952;28;20281;-71
2023/03/07 06:00:44;;;;;;;11.70;8.25;;;6.80;99.90;;;;;;5053725;28;20286;-71
2023/03/07 06:03:10;;;;;;;9.98;7.78;;;6.80;99.90;;;;;;5054067;28;20179;-71
2023/03/07 06:05:38;;;;;;;8.68;7.18;;;6.80;99.90;;;;;;5070031;28;20219;-71
2023/03/07 06:08:05;;;;;;;8.30;6.90;;;6.80;99.90;;;;;;5047495;28;20206;-71
2023/03/07 06:10:31;;;;;;;10.00;6.88;;;6.80;99.90;;;;;;5037043;28;20461;-71
2023/03/07 06:12:57;;;;;;;8.85;7.38;;;6.80;99.90;;;;;;5037218;28;20308;-72
2023/03/07 06:15:23;;;;;;;11.00;7.53;;;6.80;99.90;;;;;;5053511;28;20277;-72
2023/03/07 06:17:55;;;;;;;8.55;7.18;;;6.80;99.90;;;;;;5069313;28;20510;-71
2023/03/07 06:20:22;;;;;;;10.30;6.82;;;6.80;99.90;;;;;;5053524;28;20631;-71
2023/03/07 06:22:48;;;;;;;9.40;7.13;;;6.70;99.90;;;;;;5049462;28;21076;-71
2023/03/07 06:25:20;;;;;;;10.20;6.60;;;6.70;99.90;;;;;;5053387;28;20182;-71
2023/03/07 06:27:47;;;;;;;9.30;7.35;;;6.70;99.90;;;;;;5053710;28;20448;-72
2023/03/07 06:30:13;;;;;;;10.50;7.83;;;6.70;99.90;;;;;;5037422;28;20185;-72
2023/03/07 06:32:40;;;;;;;11.60;7.82;;;6.70;99.90;;;;;;5068858;28;20468;-72
2023/03/07 06:35:09;;;;;;;11.50;7.28;;;6.70;99.90;;;;;;5036606;28;20267;-72
2023/03/07 06:37:36;;;;;;;8.18;6.60;;;6.70;99.90;;;;;;5049668;28;20190;-72
2023/03/07 06:40:05;;;;;;;10.15;7.38;;;6.70;99.90;;;;;;5050814;28;20210;-72
2023/03/07 06:42:32;;;;;;;11.27;8.50;;;6.70;99.90;;;;;;5052761;28;20168;-72
2023/03/07 06:45:01;;;;;;;10.30;8.03;;;6.70;99.90;;;;;;5053275;28;20665;-71
2023/03/07 06:47:27;;;;;;;10.50;8.03;;;6.70;99.90;;;;;;5069074;28;20440;-72
2023/03/07 06:49:54;;;;;;;10.25;7.93;;;6.70;99.90;;;;;;5070038;28;20923;-72
2023/03/07 06:52:21;;;;;;;10.73;8.00;;;6.70;99.90;;;;;;5068729;28;20214;-73
2023/03/07 06:54:52;;;;;;;11.33;8.20;;;6.70;99.90;;;;;;5069459;28;20425;-72
2023/03/07 06:57:18;;;;;;;10.93;7.80;;;6.70;99.90;;;;;;5017215;28;20536;-71
2023/03/07 06:59:44;;;;;;;11.02;8.02;;;6.70;99.90;;;;;;5033048;28;20460;-72
2023/03/07 07:02:13;;;;;;;12.48;8.05;;;6.70;99.90;;;;;;5032604;28;20210;-73
2023/03/07 07:04:42;;;;;;;9.80;8.73;;;6.80;99.90;;;;;;5044013;28;20199;-70
2023/03/07 07:07:09;;;;;;;8.32;7.25;;;6.70;99.90;;;;;;5032597;28;20705;-71
2023/03/07 07:09:35;;;;;;;10.33;7.57;;;6.70;99.90;;;;;;5048806;28;20602;-70
2023/03/07 07:12:01;;;;;;;12.63;8.57;;;6.70;99.90;;;;;;5032375;28;20492;-71
2023/03/07 07:14:28;;;;;;;10.20;8.03;;;6.70;99.90;;;;;;5032707;28;20762;-71
2023/03/07 07:16:54;;;;;;;10.20;7.93;;;6.70;99.90;;;;;;5049138;28;20389;-70
2023/03/07 07:19:20;;;;;;;9.93;8.37;;;6.70;99.90;;;;;;5032185;28;20433;-71
2023/03/07 07:21:49;;;;;;;12.87;7.83;;;6.70;99.90;;;;;;5048453;28;20957;-71
2023/03/07 07:24:15;;;;;;;10.77;7.07;;;6.70;99.90;;;;;;5068694;28;20451;-71
2023/03/07 07:26:42;;;;;;;10.50;7.80;;;6.70;99.90;;;;;;5052160;28;20408;-70
2023/03/07 07:29:08;;;;;;;12.23;7.93;;;6.70;99.90;;;;;;5052129;28;20453;-70
2023/03/07 07:31:34;;;;;;;12.30;8.13;;;6.70;99.90;;;;;;5027259;28;20445;-70
2023/03/07 07:34:00;;;;;;;11.23;8.20;;;6.70;99.90;;;;;;5015443;28;20879;-70
2023/03/07 07:36:29;;;;;;;11.50;8.27;;;6.70;99.90;;;;;;5033684;28;20409;-71
2023/03/07 07:38:58;;;;;;;13.90;8.85;;;6.70;99.90;;;;;;5051906;28;20928;-71
2023/03/07 07:41:26;;;;;;;10.77;7.80;;;6.70;99.90;;;;;;5035695;28;20177;-71
2023/03/07 07:43:54;;;;;;;11.68;8.13;;;6.70;99.90;;;;;;5051295;28;20973;-71
2023/03/07 07:46:29;;;;;;;12.13;7.80;;;6.70;99.90;;;;;;5051596;28;20526;-70
2023/03/07 07:48:55;;;;;;;11.52;8.25;;;6.70;99.90;;;;;;5052276;28;20453;-71
2023/03/07 07:51:22;;;;;;;12.02;9.43;;;6.70;99.90;;;;;;5035253;28;20199;-71
2023/03/07 07:53:47;;;;;;;11.93;9.00;;;6.70;99.90;;;;;;5051784;28;20205;-71
2023/03/07 07:56:18;;;;;;;12.50;8.55;;;6.70;99.90;;;;;;5051090;28;20205;-71
2023/03/07 07:58:45;;;;;;;13.23;8.00;;;6.70;99.90;;;;;;5051422;28;20265;-70
2023/03/07 08:01:20;;;;;;;10.60;8.03;;;6.70;99.90;;;;;;5034958;28;20442;-70
2023/03/07 08:03:47;;;;;;;12.27;8.10;;;6.70;99.90;;;;;;5052300;28;20974;-71
2023/03/07 08:06:18;;;;;;;10.67;7.80;;;6.70;99.90;;;;;;5050801;28;20401;-70
2023/03/07 08:08:46;;;;;;;10.50;8.20;;;6.70;99.90;;;;;;5018258;28;20448;-71
2023/03/07 08:11:13;;;;;;;11.50;8.70;;;6.70;99.90;;;;;;5034604;28;20441;-71
2023/03/07 08:13:39;;;;;;;11.13;8.50;;;6.70;99.90;;;;;;5034083;28;21011;-71
2023/03/07 08:16:17;;;;;;;11.40;7.30;;;6.70;99.90;;;;;;5051090;28;20407;-71
2023/03/07 08:18:51;;;;;;;10.33;7.13;;;6.70;99.90;;;;;;5052380;28;20432;-71
2023/03/07 08:21:22;;;;;;;15.00;7.50;;;6.70;99.90;;;;;;5051883;28;20396;-71
2023/03/07 08:23:48;;;;;;;9.70;7.73;;;6.70;99.90;;;;;;5023290;28;20282;-71
2023/03/07 08:26:16;;;;;;;11.43;7.43;;;6.70;99.90;;;;;;5032160;28;20425;-71
2023/03/07 08:28:42;;;;;;;9.30;7.53;;;6.70;99.90;;;;;;5032230;28;20528;-71
2023/03/07 08:31:22;;;;;;;11.80;7.47;;;6.70;99.90;;;;;;5039622;28;20542;-71
2023/03/07 08:33:48;;;;;;;11.03;7.00;;;6.70;99.90;;;;;;5052022;28;20201;-71
2023/03/07 08:36:17;;;;;;;11.93;8.00;;;6.70;99.90;;;;;;5050708;28;20390;-71
2023/03/07 08:38:46;;;;;;;10.37;7.27;;;6.70;99.90;;;;;;5050696;28;20428;-71
2023/03/07 08:41:12;;;;;;;10.47;7.97;;;6.70;99.90;;;;;;5050852;28;20404;-71
2023/03/07 08:43:38;;;;;;;9.77;7.28;;;6.70;99.90;;;;;;5017749;28;20460;-71
2023/03/07 08:46:04;;;;;;;9.13;6.50;;;6.70;99.90;;;;;;5050484;28;20166;-71
2023/03/07 08:48:31;;;;;;;8.97;6.80;;;6.70;99.90;;;;;;5050649;28;20846;-71
2023/03/07 08:50:57;;;;;;;7.60;6.23;;;6.70;99.90;;;;;;5050461;28;20424;-71
2023/03/07 08:53:25;;;;;;;11.93;7.37;;;6.70;99.90;;;;;;5067133;28;20462;-71
2023/03/07 08:55:53;;;;;;;12.93;6.50;;;6.70;99.90;;;;;;5033508;28;20542;-71
2023/03/07 08:58:19;;;;;;;9.88;7.15;;;6.70;99.90;;;;;;5034078;28;20228;-71
2023/03/07 09:00:45;;;;;;;8.77;6.73;;;6.70;99.90;;;;;;5050077;28;20257;-71
2023/03/07 09:03:11;;;;;;;8.82;6.57;;;6.70;99.90;;;;;;5050336;28;20404;-71
2023/03/07 09:05:38;;;;;;;11.00;7.13;;;6.70;99.90;;;;;;5049761;28;20189;-72
2023/03/07 09:08:05;;;;;;;8.33;6.10;;;6.70;99.90;;;;;;5049497;28;20452;-71
2023/03/07 09:10:32;;;;;;;8.97;6.97;;;6.70;99.90;;;;;;5033935;28;20562;-71
2023/03/07 09:12:59;;;;;;;13.40;6.30;;;6.70;99.90;;;;;;5050564;28;20552;-71
2023/03/07 09:15:25;;;;;;;8.23;6.60;;;6.70;99.90;;;;;;5033939;28;20436;-71
2023/03/07 09:17:51;;;;;;;11.05;7.30;;;6.70;99.90;;;;;;5033796;28;21023;-71
2023/03/07 09:20:18;;;;;;;7.90;5.80;;;6.70;99.90;;;;;;5049293;28;20189;-71
2023/03/07 09:22:45;;;;;;;8.40;5.47;;;6.70;99.90;;;;;;5051358;28;20431;-71
2023/03/07 09:25:14;;;;;;;7.53;5.72;;;6.70;99.90;;;;;;5051820;28;20750;-71
2023/03/07 09:27:44;;;;;;;7.00;5.50;;;6.70;99.90;;;;;;5050354;28;20198;-71
2023/03/07 09:30:12;;;;;;;6.55;5.55;;;6.70;99.90;;;;;;5051305;28;20447;-71
2023/03/07 09:32:38;;;;;;;5.90;5.07;;;6.80;99.90;;;;;;5049561;28;20351;-71
2023/03/07 09:35:04;;;;;;;6.83;5.57;;;6.80;99.90;;;;;;5050272;28;20954;-71
2023/03/07 09:37:30;;;;;;;7.00;4.80;;;6.70;99.90;;;;;;5049634;28;20803;-71
2023/03/07 09:39:59;;;;;;;5.45;4.75;;;6.80;99.90;;;;;;5060501;28;20539;-71
2023/03/07 09:42:25;;;;;;;6.20;4.50;;;6.80;99.90;;;;;;5033520;28;20170;-71
2023/03/07 09:44:51;;;;;;;6.13;4.40;;;6.80;99.90;;;;;;5049975;28;20442;-71
2023/03/07 09:47:38;;;;;;;5.70;4.00;;;6.80;99.90;;;;;;5033357;28;20205;-71
2023/03/07 09:50:17;;;;;;;5.37;4.30;;;6.70;99.90;;;;;;5050933;28;20863;-71
2023/03/07 09:52:46;;;;;;;5.83;4.40;;;6.70;99.90;;;;;;5049427;28;20830;-71
2023/03/07 09:55:18;;;;;;;6.15;4.35;;;6.70;99.90;;;;;;5049486;28;20822;-71
2023/03/07 09:57:50;;;;;;;5.23;3.77;;;6.70;99.90;;;;;;5051194;28;20209;-71
2023/03/07 10:00:19;;;;;;;5.10;3.72;;;6.80;99.90;;;;;;5050015;28;20845;-71
2023/03/07 10:02:51;;;;;;;5.20;4.10;;;6.80;99.90;;;;;;5051205;28;20627;-71
2023/03/07 10:05:32;;;;;;;5.38;4.15;;;6.80;99.90;;;;;;5049760;28;20442;-71
2023/03/07 10:08:00;;;;;;;5.40;4.20;;;6.70;99.90;;;;;;5049150;28;20211;-71
2023/03/07 10:10:38;;;;;;;5.00;3.80;;;6.70;99.90;;;;;;5066269;28;20413;-71
2023/03/07 10:13:14;;;;;;;3.78;3.35;;;6.80;99.90;;;;;;5066398;28;20236;-71
2023/03/07 10:15:45;;;;;;;3.67;3.25;;;6.70;99.90;;;;;;5065962;28;20190;-71
2023/03/07 10:18:23;;;;;;;4.83;3.90;;;6.80;99.90;;;;;;5053536;28;20251;-71
2023/03/07 10:20:54;;;;;;;3.38;2.88;;;6.70;99.90;;;;;;5053365;28;20418;-71
2023/03/07 10:23:51;;;;;;;5.10;3.50;;;6.70;99.90;;;;;;5053449;28;20198;-71
2023/03/07 10:26:29;;;;;;;4.20;3.53;;;6.80;99.90;;;;;;5053500;28;20534;-71
2023/03/07 10:28:58;;;;;;;3.95;3.30;;;6.80;99.90;;;;;;5033233;28;20487;-71
2023/03/07 10:31:33;;;;;;;3.37;3.07;;;6.80;99.90;;;;;;5037135;28;20193;-71
2023/03/07 10:34:25;;;;;;;4.15;3.50;;;6.70;99.90;;;;;;5034461;28;20531;-71
2023/03/07 10:36:56;;;;;;;4.78;3.80;;;6.70;99.90;;;;;;5017022;28;20178;-71
2023/03/07 10:39:34;;;;;;;3.20;2.90;;;6.70;99.90;;;;;;5033065;28;20201;-71
2023/03/07 10:42:00;;;;;;;3.93;2.97;;;6.70;99.90;;;;;;5034127;28;20437;-71
2023/03/07 10:44:32;;;;;;;3.70;3.20;;;6.80;99.90;;;;;;5032562;28;20444;-71
2023/03/07 10:46:59;;;;;;;2.90;2.60;;;6.80;99.90;;;;;;5049254;28;20500;-71
2023/03/07 10:49:36;;;;;;;2.97;2.67;;;6.70;99.90;;;;;;5046279;28;20455;-71
2023/03/07 10:52:11;;;;;;;3.33;2.50;;;6.80;99.90;;;;;;5052576;28;20908;-71
2023/03/07 10:54:38;;;;;;;4.53;2.80;;;6.70;99.90;;;;;;5053761;28;20443;-71
2023/03/07 10:57:15;;;;;;;3.00;2.65;;;6.80;99.90;;;;;;5052885;28;20946;-71
2023/03/07 10:59:49;;;;;;;2.80;2.53;;;6.70;99.90;;;;;;5051813;28;20203;-71
2023/03/07 11:02:43;;;;;;;3.10;2.27;;;6.80;99.90;;;;;;5053685;28;20476;-71
2023/03/07 11:05:32;;;;;;;4.50;2.37;;;6.70;99.90;;;;;;5052343;28;20802;-71
2023/03/07 11:08:31;;;;;;;4.40;3.08;;;6.70;99.90;;;;;;5052421;28;20445;-71
2023/03/07 11:11:04;;;;;;;3.50;2.70;;;6.70;99.90;;;;;;5051730;28;20178;-71
2023/03/07 11:13:30;;;;;;;3.63;3.03;;;6.70;99.90;;;;;;5048494;28;20505;-71
2023/03/07 11:16:17;;;;;;;3.57;2.60;;;6.70;99.90;;;;;;5033691;28;20829;-71
2023/03/07 11:18:46;;;;;;;3.45;2.80;;;6.70;99.90;;;;;;5033422;28;20434;-71
2023/03/07 11:21:25;;;;;;;3.03;2.73;;;6.70;99.90;;;;;;5033243;28;20637;-71
2023/03/07 11:24:03;;;;;;;3.27;2.97;;;6.70;99.90;;;;;;5032137;28;20443;-71
2023/03/07 11:26:32;;;;;;;3.38;3.08;;;6.70;99.90;;;;;;5033546;28;20536;-71
2023/03/07 11:29:08;;;;;;;2.87;2.47;;;6.70;99.90;;;;;;5031080;28;20205;-71
2023/03/07 11:32:00;;;;;;;5.33;3.27;;;6.70;99.90;;;;;;5033041;28;20440;-71
2023/03/07 11:34:51;;;;;;;3.90;2.97;;;6.70;99.90;;;;;;5031518;28;20556;-71
2023/03/07 11:37:28;;;;;;;3.60;3.10;;;6.70;99.90;;;;;;5037883;28;20964;-71
2023/03/07 11:40:02;;;;;;;4.00;3.60;;;6.70;99.90;;;;;;5035186;28;20512;-71
2023/03/07 11:42:36;;;;;;;3.57;3.20;;;6.70;99.90;;;;;;5051502;28;20412;-71
2023/03/07 11:45:33;;;;;;;3.40;3.00;;;6.70;99.90;;;;;;5035362;28;20456;-71
2023/03/07 11:48:04;;;;;;;4.07;3.23;;;6.70;99.90;;;;;;5051821;28;20669;-71
2023/03/07 11:50:31;;;;;;;3.03;2.67;;;6.70;99.90;;;;;;5052727;28;20539;-71
2023/03/07 11:53:13;;;;;;;6.80;3.27;;;6.70;99.90;;;;;;5067512;28;20210;-71
2023/03/07 11:55:51;;;;;;;3.63;3.20;;;6.70;99.90;;;;;;5068187;28;20400;-71
2023/03/07 11:58:30;;;;;;;3.47;3.00;;;6.70;99.90;;;;;;5050934;28;20480;-71
2023/03/07 12:01:14;;;;;;;3.38;2.60;;;6.70;99.90;;;;;;5052572;28;20417;-71
2023/03/07 12:04:13;;;;;;;3.00;2.70;;;6.70;99.90;;;;;;5067068;28;20250;-71
2023/03/07 12:06:47;;;;;;;3.40;2.77;;;6.70;99.90;;;;;;5018700;28;20533;-71
2023/03/07 12:09:44;;;;;;;4.57;2.97;;;6.70;99.90;;;;;;5052784;28;20444;-71
2023/03/07 12:12:32;;;;;;;4.13;3.00;;;6.70;99.90;;;;;;5050879;28;20441;-71
2023/03/07 12:15:58;;;;;;;2.90;2.60;;;6.70;99.90;;;;;;5051321;28;20461;-71
2023/03/07 12:19:01;;;;;;;3.87;3.30;;;6.70;99.90;;;;;;4990736;28;20443;-71
2023/03/07 12:21:30;;;;;;;3.30;3.00;;;6.70;99.90;;;;;;4990584;28;20533;-71
2023/03/07 12:24:00;;;;;;;3.22;2.85;;;6.70;99.90;;;;;;5035010;28;20198;-71
2023/03/07 12:26:39;;;;;;;3.80;2.80;;;6.70;99.90;;;;;;5047433;28;20210;-71
2023/03/07 12:29:22;;;;;;;2.78;2.47;;;6.70;99.90;;;;;;5032382;28;20479;-71
2023/03/07 12:31:52;;;;;;;2.70;2.50;;;6.70;99.90;;;;;;5032092;28;20163;-71
2023/03/07 12:34:32;;;;;;;2.40;2.17;;;6.70;99.90;;;;;;5034036;28;20458;-71
2023/03/07 12:37:05;;;;;;;3.20;2.45;;;6.70;99.90;;;;;;5051941;28;20552;-71
2023/03/07 12:39:54;;;;;;;3.05;2.45;;;6.70;99.90;;;;;;5034008;28;20217;-71
2023/03/07 12:42:40;;;;;;;3.23;2.80;;;6.70;99.90;;;;;;5034089;28;20177;-71
2023/03/07 12:45:17;;;;;;;2.67;2.47;;;6.70;99.90;;;;;;5030381;28;20502;-71
2023/03/07 12:47:52;;;;;;;3.30;2.37;;;6.70;99.90;;;;;;5030590;28;20953;-71
2023/03/07 12:50:36;;;;;;;2.90;2.28;;;6.70;99.90;;;;;;5014172;28;20405;-71
2023/03/07 12:53:08;;;;;;;3.20;2.50;;;6.80;99.90;;;;;;5014239;28;20616;-71
2023/03/07 12:56:04;;;;;;;2.80;2.60;;;6.70;99.90;;;;;;5041047;28;20440;-71
2023/03/07 12:58:42;;;;;;;2.97;2.77;;;6.70;99.90;;;;;;5050571;28;20437;-71
2023/03/07 13:01:40;;;;;;;2.60;2.40;;;6.70;99.90;;;;;;5050347;28;20401;-71
2023/03/07 13:04:16;;;;;;;2.93;2.57;;;6.70;99.90;;;;;;5048099;28;20458;-71
2023/03/07 13:06:46;;;;;;;4.10;2.75;;;6.70;99.90;;;;;;5051619;28;20776;-71
2023/03/07 13:09:24;;;;;;;2.73;2.53;;;6.70;99.90;;;;;;5050354;28;20213;-71
2023/03/07 13:12:11;;;;;;;3.20;2.90;;;6.70;99.90;;;;;;5032931;28;20476;-71
2023/03/07 13:14:47;;;;;;;2.60;2.40;;;6.70;99.90;;;;;;5051588;28;20170;-71
2023/03/07 13:17:28;;;;;;;2.93;2.60;;;6.70;99.90;;;;;;5050330;28;20177;-71